createdAt,value
2019-05-13T00:01:10.514Z,50.90
2019-05-13T00:11:15.758Z,50.70
2019-05-13T00:21:23.133Z,50.80
2019-05-13T00:31:28.063Z,50.80
2019-05-13T00:41:33.875Z,50.80
2019-05-13T00:51:39.282Z,50.90
2019-05-13T01:01:44.669Z,51.20
2019-05-13T01:11:49.939Z,51.20
2019-05-13T01:21:55.428Z,51.20
2019-05-13T01:32:01.158Z,51.30
2019-05-13T01:42:06.460Z,51.30
2019-05-13T01:52:13.685Z,51.50
2019-05-13T02:02:18.947Z,51.50
2019-05-13T02:12:24.341Z,51.60
2019-05-13T02:22:29.980Z,51.70
2019-05-13T02:32:35.353Z,51.80
2019-05-13T02:42:43.608Z,51.90
2019-05-13T02:52:48.951Z,52.10
2019-05-13T03:02:54.861Z,52.10
2019-05-13T03:13:03.332Z,52.30
2019-05-13T03:23:07.423Z,52.50
2019-05-13T03:33:18.591Z,52.70
2019-05-13T03:43:22.980Z,52.70
2019-05-13T03:53:28.836Z,52.50
2019-05-13T04:03:34.231Z,52.50
2019-05-13T04:13:42.535Z,52.80
2019-05-13T04:23:46.615Z,52.70
2019-05-13T04:33:53.262Z,52.60
2019-05-13T04:44:02.325Z,52.80
2019-05-13T04:54:06.102Z,52.70
2019-05-13T05:04:30.520Z,52.60
2019-05-13T05:14:56.944Z,52.60
2019-05-13T05:25:25.140Z,52.70
2019-05-13T05:36:11.727Z,52.40
2019-05-13T05:46:17.687Z,52.50
2019-05-13T05:56:24.053Z,52.50
2019-05-13T06:06:29.472Z,52.40
2019-05-13T06:16:35.683Z,52.20
2019-05-13T06:26:41.966Z,52.40
2019-05-13T06:36:47.573Z,52.40
2019-05-13T06:46:52.851Z,52.30
2019-05-13T06:56:58.141Z,52.30
2019-05-13T07:07:12.822Z,52.20
2019-05-13T07:17:12.396Z,51.90
2019-05-13T07:27:18.062Z,51.80
2019-05-13T07:37:23.489Z,51.70
2019-05-13T07:47:31.221Z,51.50
2019-05-13T07:57:35.744Z,51.40
2019-05-13T08:07:42.188Z,51.30
2019-05-13T08:17:48.195Z,51.10
2019-05-13T08:27:53.751Z,50.70
2019-05-13T08:38:01.376Z,50.70
2019-05-13T08:48:06.389Z,50.40
2019-05-13T08:58:12.460Z,50.20
2019-05-13T09:08:18.711Z,50.20
2019-05-13T09:18:24.140Z,49.80
2019-05-13T09:28:29.496Z,49.70
2019-05-13T09:38:35.265Z,49.40
2019-05-13T09:48:42.526Z,49.20
2019-05-13T09:58:47.644Z,48.70
2019-05-13T10:08:53.010Z,48.40
2019-05-13T10:18:58.271Z,47.80
2019-05-13T10:29:03.797Z,47.10
2019-05-13T10:39:11.652Z,45.70
2019-05-13T10:49:16.301Z,43.30
2019-05-13T10:59:22.988Z,41.70
2019-05-13T11:09:28.632Z,41.00
2019-05-13T11:19:36.967Z,39.10
2019-05-13T11:29:41.643Z,37.70
2019-05-13T11:39:47.068Z,36.40
2019-05-13T11:49:52.643Z,35.80
2019-05-13T11:59:58.635Z,35.40
2019-05-13T12:10:05.675Z,34.50
2019-05-13T12:20:12.205Z,34.40
2019-05-13T12:30:17.656Z,34.30
2019-05-13T12:40:23.220Z,32.50
2019-05-13T12:50:32.824Z,32.00
2019-05-13T13:00:37.967Z,32.10
2019-05-13T13:10:43.447Z,31.10
2019-05-13T13:21:08.530Z,31.20
2019-05-13T13:31:14.396Z,30.60
2019-05-13T13:41:22.616Z,31.90
2019-05-13T13:51:27.385Z,32.50
2019-05-13T14:01:33.595Z,33.40
2019-05-13T14:11:41.785Z,33.10
2019-05-13T14:21:46.499Z,32.20
2019-05-13T14:31:52.129Z,32.30
2019-05-13T14:41:57.971Z,32.00
2019-05-13T14:52:03.313Z,32.30
2019-05-13T15:02:08.576Z,31.40
2019-05-13T15:12:14.068Z,31.30
2019-05-13T15:22:22.470Z,30.90
2019-05-13T15:32:26.772Z,28.40
2019-05-13T15:42:32.283Z,29.00
2019-05-13T15:52:38.164Z,27.30
2019-05-13T16:02:43.776Z,29.70
2019-05-13T16:12:49.077Z,30.70
2019-05-13T16:22:54.494Z,31.20
2019-05-13T16:33:02.906Z,32.20
2019-05-13T16:43:08.148Z,32.70
2019-05-13T16:53:13.431Z,33.20
2019-05-13T17:03:21.066Z,33.10
2019-05-13T17:13:26.527Z,32.90
2019-05-13T17:23:31.802Z,33.10
2019-05-13T17:33:37.067Z,33.30
2019-05-13T17:43:42.644Z,33.70
2019-05-13T17:53:47.998Z,34.00
2019-05-13T18:03:53.285Z,34.20
2019-05-13T18:13:58.562Z,34.50
2019-05-13T18:24:03.896Z,34.90
2019-05-13T18:34:09.228Z,35.20
2019-05-13T18:44:14.742Z,35.40
2019-05-13T18:54:19.991Z,35.80
2019-05-13T19:04:25.248Z,36.30
2019-05-13T19:14:31.763Z,36.70
2019-05-13T19:24:37.291Z,37.10
2019-05-13T19:34:42.647Z,38.30
2019-05-13T19:44:47.998Z,38.20
2019-05-13T19:54:53.488Z,38.80
2019-05-13T20:05:01.066Z,39.00
2019-05-13T20:15:06.716Z,39.60
2019-05-13T20:25:13.139Z,40.20
2019-05-13T20:35:18.644Z,40.60
2019-05-13T20:45:24.183Z,41.40
2019-05-13T20:55:31.997Z,42.00
2019-05-13T21:05:36.956Z,42.60
2019-05-13T21:15:42.667Z,43.30
2019-05-13T21:25:48.016Z,43.80
2019-05-13T21:35:53.288Z,44.30
2019-05-13T21:45:58.875Z,44.70
2019-05-13T21:56:04.211Z,44.80
2019-05-13T22:06:11.053Z,45.40
2019-05-13T22:16:16.427Z,46.00
2019-05-13T22:26:22.307Z,46.30
2019-05-13T22:36:27.547Z,46.30
2019-05-13T22:46:33.348Z,46.60
2019-05-13T22:56:41.052Z,47.20
2019-05-13T23:06:45.552Z,47.40
2019-05-13T23:16:50.887Z,47.20
2019-05-13T23:26:56.148Z,47.70
2019-05-13T23:37:01.728Z,47.70
2019-05-13T23:47:07.400Z,47.80
2019-05-13T23:57:12.924Z,47.70
